createdAt,value
2022-10-09T00:00:48.061Z,1.65
2022-10-09T00:03:17.329Z,1.48
2022-10-09T00:05:45.444Z,0.93
2022-10-09T00:08:11.965Z,0.90
2022-10-09T00:10:43.471Z,0.80
2022-10-09T00:13:11.625Z,0.80
2022-10-09T00:15:39.699Z,0.90
2022-10-09T00:18:07.245Z,1.02
2022-10-09T00:20:40.892Z,1.05
2022-10-09T00:25:34.395Z,1.42
2022-10-09T00:28:00.941Z,1.27
2022-10-09T00:30:27.467Z,1.65
2022-10-09T00:32:54.527Z,1.23
2022-10-09T00:35:21.528Z,1.30
2022-10-09T00:37:48.641Z,1.30
2022-10-09T00:40:16.145Z,1.35
2022-10-09T00:42:45.430Z,1.20
2022-10-09T00:45:20.576Z,1.33
2022-10-09T00:47:50.719Z,1.30
2022-10-09T00:50:29.138Z,1.17
2022-10-09T00:52:59.499Z,1.27
2022-10-09T00:55:27.894Z,1.33
2022-10-09T00:57:55.489Z,0.98
2022-10-09T01:00:22.475Z,1.15
2022-10-09T01:02:49.194Z,1.30
2022-10-09T01:05:16.216Z,1.05
2022-10-09T01:07:49.619Z,1.30
2022-10-09T01:10:23.618Z,1.10
2022-10-09T01:13:11.762Z,1.48
2022-10-09T01:15:44.664Z,1.40
2022-10-09T01:18:21.635Z,1.10
2022-10-09T01:21:14.184Z,1.15
2022-10-09T01:24:02.106Z,1.10
2022-10-09T01:26:35.503Z,1.30
2022-10-09T01:29:06.712Z,1.65
2022-10-09T01:31:37.530Z,1.42
2022-10-09T01:34:04.053Z,1.00
2022-10-09T01:36:31.051Z,1.35
2022-10-09T01:39:01.779Z,1.30
2022-10-09T01:41:28.443Z,1.20
2022-10-09T01:43:54.898Z,1.38
2022-10-09T01:46:32.127Z,1.30
2022-10-09T01:49:23.792Z,1.50
2022-10-09T01:51:57.491Z,2.17
2022-10-09T01:54:36.736Z,1.80
2022-10-09T01:57:05.527Z,1.42
2022-10-09T01:59:34.530Z,1.92
2022-10-09T02:02:01.165Z,1.42
2022-10-09T02:04:30.121Z,0.70
2022-10-09T02:06:56.982Z,0.80
2022-10-09T02:09:24.107Z,1.05
2022-10-09T02:11:53.577Z,0.98
2022-10-09T02:14:20.300Z,0.90
2022-10-09T02:16:48.411Z,1.17
2022-10-09T02:19:28.559Z,1.10
2022-10-09T02:22:08.346Z,1.38
2022-10-09T02:24:37.675Z,1.10
2022-10-09T02:27:04.575Z,0.70
2022-10-09T02:29:31.025Z,1.08
2022-10-09T02:31:57.510Z,1.30
2022-10-09T02:34:24.006Z,0.88
2022-10-09T02:36:50.643Z,0.77
2022-10-09T02:39:17.443Z,0.40
2022-10-09T02:41:43.894Z,1.27
2022-10-09T02:44:10.358Z,1.17
2022-10-09T02:46:38.318Z,1.02
2022-10-09T02:49:05.543Z,1.27
2022-10-09T02:51:31.991Z,1.20
2022-10-09T02:53:59.650Z,1.70
2022-10-09T02:56:26.497Z,1.42
2022-10-09T02:58:52.947Z,1.35
2022-10-09T03:01:19.549Z,1.70
2022-10-09T03:03:46.516Z,1.52
2022-10-09T03:06:14.662Z,1.23
2022-10-09T03:08:43.581Z,1.33
2022-10-09T03:11:10.770Z,1.55
2022-10-09T03:13:39.472Z,1.20
2022-10-09T03:16:07.109Z,1.30
2022-10-09T03:18:34.018Z,1.27
2022-10-09T03:21:00.493Z,1.25
2022-10-09T03:23:27.205Z,1.40
2022-10-09T03:25:57.757Z,1.42
2022-10-09T03:28:24.998Z,1.23
2022-10-09T03:30:52.095Z,1.25
2022-10-09T03:33:18.685Z,1.35
2022-10-09T03:35:46.189Z,1.17
2022-10-09T03:38:13.262Z,1.27
2022-10-09T03:40:40.023Z,1.48
2022-10-09T03:43:06.530Z,1.30
2022-10-09T03:45:33.015Z,1.08
2022-10-09T03:47:59.491Z,1.15
2022-10-09T03:50:25.965Z,1.25
2022-10-09T03:52:52.434Z,1.40
2022-10-09T03:55:18.871Z,1.10
2022-10-09T03:57:45.343Z,1.00
2022-10-09T04:00:12.378Z,0.50
2022-10-09T04:02:38.908Z,0.43
2022-10-09T04:05:06.056Z,1.10
2022-10-09T04:07:32.704Z,1.25
2022-10-09T04:09:59.163Z,1.27
2022-10-09T04:12:25.625Z,1.10
2022-10-09T04:14:52.123Z,1.10
2022-10-09T04:17:18.630Z,1.73
2022-10-09T04:19:45.075Z,1.35
2022-10-09T04:22:11.541Z,1.23
2022-10-09T04:24:38.007Z,1.20
2022-10-09T04:27:04.465Z,1.50
2022-10-09T04:29:30.908Z,1.00
2022-10-09T04:31:57.406Z,0.77
2022-10-09T04:34:23.943Z,1.30
2022-10-09T04:36:50.428Z,1.00
2022-10-09T04:39:16.881Z,1.67
2022-10-09T04:41:43.346Z,0.80
2022-10-09T04:44:09.965Z,0.90
2022-10-09T04:46:37.396Z,1.40
2022-10-09T04:49:03.855Z,1.17
2022-10-09T04:51:30.319Z,1.52
2022-10-09T04:54:00.421Z,1.00
2022-10-09T04:56:27.288Z,0.98
2022-10-09T04:58:53.735Z,1.60
2022-10-09T05:01:22.810Z,1.40
2022-10-09T05:03:49.825Z,1.40
2022-10-09T05:06:16.648Z,1.83
2022-10-09T05:08:43.365Z,0.60
2022-10-09T05:11:15.282Z,1.25
2022-10-09T05:13:45.044Z,1.42
2022-10-09T05:16:14.577Z,1.52
2022-10-09T05:18:43.055Z,1.73
2022-10-09T05:21:10.026Z,1.55
2022-10-09T05:23:36.490Z,1.73
2022-10-09T05:26:05.912Z,1.60
2022-10-09T05:28:32.980Z,1.60
2022-10-09T05:30:59.629Z,1.48
2022-10-09T05:33:26.168Z,1.58
2022-10-09T05:35:53.435Z,2.20
2022-10-09T05:38:20.456Z,1.52
2022-10-09T05:41:06.679Z,1.92
2022-10-09T05:43:35.428Z,1.67
2022-10-09T05:46:10.319Z,1.80
2022-10-09T05:48:37.849Z,1.65
2022-10-09T05:51:14.038Z,2.55
2022-10-09T05:53:42.196Z,1.67
2022-10-09T05:56:23.045Z,1.80
2022-10-09T05:58:56.750Z,2.35
2022-10-09T06:03:55.664Z,1.63
2022-10-09T06:06:23.679Z,2.25
2022-10-09T06:08:50.155Z,2.30
2022-10-09T06:11:20.506Z,1.90
2022-10-09T06:13:47.277Z,2.38
2022-10-09T06:16:15.408Z,2.17
2022-10-09T06:18:48.094Z,2.03
2022-10-09T06:21:16.110Z,1.77
2022-10-09T06:23:42.671Z,2.10
2022-10-09T06:26:13.476Z,1.88
2022-10-09T06:28:40.520Z,1.63
2022-10-09T06:31:16.049Z,1.98
2022-10-09T06:33:44.287Z,1.70
2022-10-09T06:36:22.041Z,2.05
2022-10-09T06:38:48.711Z,1.60
2022-10-09T06:41:18.268Z,2.25
2022-10-09T06:43:52.942Z,1.60
2022-10-09T06:46:20.668Z,1.90
2022-10-09T06:48:48.682Z,1.60
2022-10-09T06:51:18.490Z,2.00
2022-10-09T06:53:47.799Z,1.90
2022-10-09T06:56:15.278Z,1.95
2022-10-09T06:58:43.220Z,2.08
2022-10-09T07:01:16.706Z,1.85
2022-10-09T07:03:45.547Z,2.25
2022-10-09T07:06:18.950Z,2.25
2022-10-09T07:08:48.389Z,1.80
2022-10-09T07:11:18.812Z,2.00
2022-10-09T07:13:47.129Z,1.90
2022-10-09T07:16:13.759Z,2.03
2022-10-09T07:18:40.384Z,2.17
2022-10-09T07:21:08.615Z,2.00
2022-10-09T07:23:35.843Z,1.90
2022-10-09T07:26:08.026Z,2.38
2022-10-09T07:28:34.552Z,1.70
2022-10-09T07:31:05.523Z,2.35
2022-10-09T07:33:32.197Z,1.90
2022-10-09T07:36:01.036Z,1.73
2022-10-09T07:38:28.073Z,1.83
2022-10-09T07:40:55.151Z,2.47
2022-10-09T07:43:22.624Z,1.95
2022-10-09T07:45:49.144Z,2.40
2022-10-09T07:48:16.127Z,2.15
2022-10-09T07:50:42.683Z,1.80
2022-10-09T07:53:09.772Z,2.80
2022-10-09T07:55:36.478Z,2.47
2022-10-09T07:58:03.462Z,2.60
2022-10-09T08:00:29.915Z,2.33
2022-10-09T08:02:56.414Z,2.70
2022-10-09T08:05:23.151Z,2.42
2022-10-09T08:07:49.734Z,2.47
2022-10-09T08:10:16.308Z,2.47
2022-10-09T08:12:43.112Z,2.67
2022-10-09T08:15:09.628Z,2.58
2022-10-09T08:17:36.652Z,3.25
2022-10-09T08:20:03.636Z,2.50
2022-10-09T08:22:30.150Z,3.20
2022-10-09T08:24:56.986Z,2.67
2022-10-09T08:27:23.460Z,3.10
2022-10-09T08:29:49.953Z,2.97
2022-10-09T08:32:16.407Z,2.60
2022-10-09T08:34:44.779Z,2.25
2022-10-09T08:37:11.787Z,3.08
2022-10-09T08:39:39.583Z,2.58
2022-10-09T08:42:07.202Z,2.90
2022-10-09T08:44:38.210Z,2.80
2022-10-09T08:47:42.547Z,3.00
2022-10-09T08:50:22.870Z,2.53
2022-10-09T08:53:11.275Z,2.83
2022-10-09T08:55:58.634Z,2.25
2022-10-09T08:58:31.106Z,2.80
2022-10-09T09:01:06.189Z,2.95
2022-10-09T09:04:20.171Z,2.50
2022-10-09T09:07:04.186Z,2.75
2022-10-09T09:09:51.973Z,2.40
2022-10-09T09:12:34.587Z,2.30
2022-10-09T09:15:30.007Z,2.55
2022-10-09T09:17:59.333Z,2.63
2022-10-09T09:20:27.554Z,2.72
2022-10-09T09:22:55.416Z,2.28
2022-10-09T09:25:26.498Z,2.85
2022-10-09T09:27:54.174Z,2.97
2022-10-09T09:30:27.988Z,3.20
2022-10-09T09:33:01.323Z,2.50
2022-10-09T09:35:29.858Z,2.17
2022-10-09T09:37:56.433Z,2.20
2022-10-09T09:40:36.037Z,2.30
2022-10-09T09:43:15.947Z,2.10
2022-10-09T09:45:43.799Z,2.20
2022-10-09T09:48:15.602Z,2.70
2022-10-09T09:50:50.653Z,2.40
2022-10-09T09:53:32.602Z,2.30
2022-10-09T09:55:59.074Z,2.92
2022-10-09T09:58:34.806Z,2.55
2022-10-09T10:01:03.069Z,2.63
2022-10-09T10:03:30.748Z,2.03
2022-10-09T10:05:57.238Z,2.65
2022-10-09T10:08:34.474Z,2.25
2022-10-09T10:11:03.330Z,2.70
2022-10-09T10:13:34.639Z,1.90
2022-10-09T10:16:01.700Z,2.22
2022-10-09T10:18:29.449Z,2.13
2022-10-09T10:20:57.600Z,2.70
2022-10-09T10:23:34.627Z,2.53
2022-10-09T10:26:05.591Z,2.40
2022-10-09T10:28:37.636Z,2.45
2022-10-09T10:31:06.265Z,2.38
2022-10-09T10:33:33.769Z,2.28
2022-10-09T10:36:01.196Z,1.80
2022-10-09T10:38:40.671Z,2.40
2022-10-09T10:41:26.320Z,2.00
2022-10-09T10:44:02.346Z,2.28
2022-10-09T10:46:32.597Z,2.42
2022-10-09T10:48:59.899Z,2.17
2022-10-09T10:51:47.978Z,2.40
2022-10-09T10:54:20.314Z,2.50
2022-10-09T10:57:05.998Z,1.77
2022-10-09T11:00:05.306Z,1.42
2022-10-09T11:02:42.347Z,1.58
2022-10-09T11:05:16.762Z,1.50
2022-10-09T11:08:04.594Z,1.25
2022-10-09T11:10:43.630Z,1.40
2022-10-09T11:13:32.215Z,1.60
2022-10-09T11:16:35.540Z,1.85
2022-10-09T11:19:09.886Z,1.60
2022-10-09T11:21:45.152Z,1.50
2022-10-09T11:24:28.787Z,1.52
2022-10-09T11:27:03.678Z,1.63
2022-10-09T11:29:37.543Z,1.60
2022-10-09T11:32:27.192Z,1.27
2022-10-09T11:35:12.500Z,1.52
2022-10-09T11:37:41.800Z,1.83
2022-10-09T11:40:20.393Z,1.58
2022-10-09T11:42:53.000Z,1.70
2022-10-09T11:45:29.209Z,1.27
2022-10-09T11:48:14.288Z,1.52
2022-10-09T11:51:01.329Z,1.60
2022-10-09T11:53:28.711Z,1.80
2022-10-09T11:56:07.179Z,1.23
2022-10-09T11:58:34.554Z,1.83
2022-10-09T12:01:22.631Z,1.60
2022-10-09T12:04:00.740Z,1.80
2022-10-09T12:06:28.037Z,1.60
2022-10-09T12:09:04.867Z,1.67
2022-10-09T12:11:32.480Z,1.55
2022-10-09T12:14:01.043Z,1.92
2022-10-09T12:16:38.660Z,2.00
2022-10-09T12:19:14.173Z,1.55
2022-10-09T12:21:48.239Z,1.38
2022-10-09T12:24:25.818Z,1.58
2022-10-09T12:26:55.271Z,1.67
2022-10-09T12:29:27.846Z,1.65
2022-10-09T12:31:57.758Z,1.35
2022-10-09T12:34:26.780Z,1.35
2022-10-09T12:37:04.051Z,1.42
2022-10-09T12:39:33.939Z,2.00
2022-10-09T12:42:00.750Z,1.63
2022-10-09T12:44:40.103Z,1.50
2022-10-09T12:47:09.877Z,1.40
2022-10-09T12:49:36.698Z,1.35
2022-10-09T12:52:03.188Z,1.38
2022-10-09T12:54:30.866Z,1.30
2022-10-09T12:56:58.076Z,1.33
2022-10-09T12:59:25.820Z,1.38
2022-10-09T13:01:56.568Z,1.38
2022-10-09T13:04:36.688Z,1.38
2022-10-09T13:07:07.006Z,1.17
2022-10-09T13:09:40.095Z,1.42
2022-10-09T13:12:07.988Z,1.40
2022-10-09T13:14:41.263Z,1.40
2022-10-09T13:17:24.175Z,1.42
2022-10-09T13:19:53.177Z,1.40
2022-10-09T13:22:29.058Z,1.38
2022-10-09T13:24:58.329Z,1.65
2022-10-09T13:27:31.450Z,2.00
2022-10-09T13:30:01.059Z,1.77
2022-10-09T13:32:27.931Z,1.55
2022-10-09T13:34:55.141Z,1.40
2022-10-09T13:37:23.611Z,1.52
2022-10-09T13:39:54.010Z,1.38
2022-10-09T13:42:20.963Z,1.15
2022-10-09T13:44:47.468Z,1.50
2022-10-09T13:47:13.986Z,1.40
2022-10-09T13:49:40.705Z,1.33
2022-10-09T13:52:07.217Z,1.60
2022-10-09T13:54:33.685Z,1.10
2022-10-09T13:57:00.156Z,1.70
2022-10-09T13:59:28.605Z,1.38
2022-10-09T14:01:55.446Z,1.50
2022-10-09T14:04:21.995Z,1.10
2022-10-09T14:06:48.694Z,1.77
2022-10-09T14:09:15.419Z,1.38
2022-10-09T14:11:42.065Z,1.17
2022-10-09T14:14:08.625Z,1.50
2022-10-09T14:16:35.152Z,1.42
2022-10-09T14:19:03.534Z,1.55
2022-10-09T14:21:30.292Z,1.60
2022-10-09T14:24:01.414Z,1.10
2022-10-09T14:26:28.514Z,1.30
2022-10-09T14:28:57.902Z,1.50
2022-10-09T14:31:24.425Z,1.70
2022-10-09T14:34:02.156Z,1.50
2022-10-09T14:36:29.319Z,1.63
2022-10-09T14:38:57.033Z,1.42
2022-10-09T14:41:24.170Z,1.27
2022-10-09T14:43:57.474Z,1.23
2022-10-09T14:46:28.703Z,1.20
2022-10-09T14:49:00.402Z,1.40
2022-10-09T14:51:27.955Z,1.55
2022-10-09T14:54:00.790Z,1.73
2022-10-09T14:56:27.715Z,1.90
2022-10-09T14:58:54.395Z,1.38
2022-10-09T15:01:22.448Z,1.30
2022-10-09T15:03:49.408Z,1.45
2022-10-09T15:06:23.920Z,1.58
2022-10-09T15:08:55.753Z,1.42
2022-10-09T15:11:22.894Z,1.65
2022-10-09T15:13:49.471Z,1.45
2022-10-09T15:16:16.907Z,1.45
2022-10-09T15:18:43.762Z,1.50
2022-10-09T15:21:16.790Z,1.23
2022-10-09T15:23:43.328Z,1.00
2022-10-09T15:26:10.431Z,1.33
2022-10-09T15:28:38.049Z,1.35
2022-10-09T15:31:06.047Z,1.48
2022-10-09T15:33:33.195Z,1.10
2022-10-09T15:35:59.764Z,1.30
2022-10-09T15:38:26.405Z,1.42
2022-10-09T15:40:55.120Z,1.10
2022-10-09T15:43:23.440Z,1.27
2022-10-09T15:45:53.012Z,1.33
2022-10-09T15:48:24.010Z,1.40
2022-10-09T15:50:53.419Z,1.55
2022-10-09T15:53:22.388Z,1.48
2022-10-09T15:55:53.662Z,1.30
2022-10-09T15:58:20.583Z,1.10
2022-10-09T16:00:49.268Z,1.33
2022-10-09T16:03:17.358Z,1.13
2022-10-09T16:05:49.465Z,1.38
2022-10-09T16:08:17.529Z,1.60
2022-10-09T16:10:48.823Z,1.40
2022-10-09T16:13:16.471Z,1.52
2022-10-09T16:15:44.253Z,1.23
2022-10-09T16:18:11.019Z,1.10
2022-10-09T16:20:39.107Z,1.15
2022-10-09T16:23:06.448Z,1.55
2022-10-09T16:25:33.461Z,1.70
2022-10-09T16:28:00.122Z,1.42
2022-10-09T16:30:27.543Z,1.65
2022-10-09T16:32:54.107Z,1.50
2022-10-09T16:35:21.776Z,1.50
2022-10-09T16:37:48.364Z,1.80
2022-10-09T16:40:14.837Z,1.80
2022-10-09T16:42:42.345Z,1.98
2022-10-09T16:45:09.724Z,1.60
2022-10-09T16:47:37.740Z,1.67
2022-10-09T16:50:05.665Z,1.60
2022-10-09T16:52:32.642Z,1.48
2022-10-09T16:55:00.698Z,1.63
2022-10-09T16:57:27.768Z,1.70
2022-10-09T16:59:54.353Z,1.33
2022-10-09T17:02:20.866Z,1.80
2022-10-09T17:04:47.446Z,1.77
2022-10-09T17:07:13.992Z,1.80
2022-10-09T17:09:41.119Z,1.38
2022-10-09T17:12:09.709Z,1.50
2022-10-09T17:14:37.208Z,1.90
2022-10-09T17:17:10.929Z,1.70
2022-10-09T17:19:38.440Z,1.90
2022-10-09T17:22:10.601Z,1.60
2022-10-09T17:24:37.577Z,2.03
2022-10-09T17:27:08.876Z,1.90
2022-10-09T17:29:38.544Z,2.20
2022-10-09T17:32:07.132Z,2.30
2022-10-09T17:34:33.735Z,2.25
2022-10-09T17:37:00.498Z,2.30
2022-10-09T17:39:27.147Z,2.38
2022-10-09T17:41:53.912Z,2.38
2022-10-09T17:44:22.704Z,2.20
2022-10-09T17:46:54.032Z,2.50
2022-10-09T17:49:22.705Z,2.20
2022-10-09T17:51:52.394Z,2.30
2022-10-09T17:54:19.011Z,2.50
2022-10-09T17:56:45.475Z,2.15
2022-10-09T17:59:12.882Z,2.22
2022-10-09T18:01:39.897Z,2.15
2022-10-09T18:04:07.525Z,2.22
2022-10-09T18:06:46.213Z,1.92
2022-10-09T18:09:13.894Z,2.17
2022-10-09T18:11:40.745Z,1.90
2022-10-09T18:14:07.373Z,2.65
2022-10-09T18:16:36.854Z,2.33
2022-10-09T18:19:18.436Z,1.92
2022-10-09T18:21:46.734Z,2.10
2022-10-09T18:24:14.397Z,2.72
2022-10-09T18:26:41.550Z,2.83
2022-10-09T18:29:08.060Z,2.35
2022-10-09T18:31:35.027Z,2.28
2022-10-09T18:34:01.712Z,2.53
2022-10-09T18:36:34.207Z,2.38
2022-10-09T18:39:09.479Z,2.40
2022-10-09T18:41:36.853Z,2.20
2022-10-09T18:44:04.428Z,2.60
2022-10-09T18:46:36.913Z,2.30
2022-10-09T18:49:09.189Z,2.00
2022-10-09T18:51:37.955Z,3.23
2022-10-09T18:54:05.770Z,2.20
2022-10-09T18:56:33.498Z,2.72
2022-10-09T18:59:01.784Z,2.75
2022-10-09T19:01:28.892Z,2.75
2022-10-09T19:03:55.412Z,2.45
2022-10-09T19:06:23.083Z,2.60
2022-10-09T19:08:49.636Z,2.60
2022-10-09T19:11:16.201Z,2.50
2022-10-09T19:13:43.710Z,2.15
2022-10-09T19:16:10.557Z,2.78
2022-10-09T19:18:39.576Z,2.58
2022-10-09T19:21:06.281Z,2.40
2022-10-09T19:23:34.908Z,2.60
2022-10-09T19:26:04.302Z,2.63
2022-10-09T19:28:32.588Z,2.45
2022-10-09T19:31:02.428Z,2.55
2022-10-09T19:33:29.304Z,2.65
2022-10-09T19:35:56.410Z,2.75
2022-10-09T19:38:23.425Z,2.67
2022-10-09T19:40:50.727Z,2.70
2022-10-09T19:43:18.414Z,3.10
2022-10-09T19:45:45.113Z,3.08
2022-10-09T19:48:11.583Z,2.58
2022-10-09T19:50:44.828Z,3.45
2022-10-09T19:53:11.621Z,2.78
2022-10-09T19:55:38.153Z,3.00
2022-10-09T19:58:04.743Z,3.08
2022-10-09T20:00:31.195Z,3.08
2022-10-09T20:02:57.686Z,2.70
2022-10-09T20:05:24.238Z,3.20
2022-10-09T20:07:50.703Z,3.13
2022-10-09T20:10:17.200Z,3.05
2022-10-09T20:12:43.846Z,3.20
2022-10-09T20:15:10.369Z,3.35
2022-10-09T20:17:37.054Z,3.22
2022-10-09T20:20:06.994Z,3.25
2022-10-09T20:22:33.500Z,3.13
2022-10-09T20:25:00.132Z,3.25
2022-10-09T20:27:26.608Z,3.03
2022-10-09T20:29:53.919Z,2.92
2022-10-09T20:32:20.860Z,3.03
2022-10-09T20:34:48.341Z,3.35
2022-10-09T20:37:14.801Z,3.28
2022-10-09T20:39:41.244Z,3.05
2022-10-09T20:42:07.945Z,3.30
2022-10-09T20:44:34.467Z,3.00
2022-10-09T20:47:01.982Z,3.45
2022-10-09T20:49:28.677Z,3.50
2022-10-09T20:51:59.249Z,3.45
2022-10-09T20:54:27.520Z,3.10
2022-10-09T20:56:54.409Z,3.22
2022-10-09T20:59:21.342Z,3.17
2022-10-09T21:01:49.055Z,3.28
2022-10-09T21:04:21.792Z,3.40
2022-10-09T21:06:48.601Z,2.95
2022-10-09T21:09:15.050Z,3.17
2022-10-09T21:11:41.815Z,2.97
2022-10-09T21:14:10.438Z,3.28
2022-10-09T21:16:37.049Z,3.30
2022-10-09T21:19:04.861Z,3.22
2022-10-09T21:21:31.800Z,3.20
2022-10-09T21:23:59.497Z,3.50
2022-10-09T21:26:28.051Z,3.47
2022-10-09T21:28:59.243Z,3.42
2022-10-09T21:31:28.288Z,3.80
2022-10-09T21:33:55.293Z,3.33
2022-10-09T21:36:55.871Z,3.05
2022-10-09T21:39:27.427Z,3.20
2022-10-09T21:41:54.477Z,3.65
2022-10-09T21:44:21.064Z,3.13
2022-10-09T21:46:48.016Z,3.63
2022-10-09T21:49:23.084Z,3.53
2022-10-09T21:51:49.574Z,3.47
2022-10-09T21:54:16.510Z,3.42
2022-10-09T21:56:43.061Z,3.00
2022-10-09T21:59:09.584Z,3.10
2022-10-09T22:01:36.157Z,3.35
2022-10-09T22:04:02.700Z,3.50
2022-10-09T22:06:29.211Z,3.80
2022-10-09T22:08:56.069Z,3.63
2022-10-09T22:11:22.614Z,3.95
2022-10-09T22:13:49.887Z,4.00
2022-10-09T22:16:16.401Z,3.75
2022-10-09T22:18:43.077Z,3.60
2022-10-09T22:21:14.623Z,3.78
2022-10-09T22:23:41.182Z,3.50
2022-10-09T22:26:15.235Z,3.80
2022-10-09T22:28:41.770Z,3.30
2022-10-09T22:31:15.762Z,3.28
2022-10-09T22:33:42.974Z,3.42
2022-10-09T22:36:16.343Z,3.55
2022-10-09T22:38:43.871Z,3.10
2022-10-09T22:41:12.482Z,3.20
2022-10-09T22:43:40.723Z,2.67
2022-10-09T22:46:12.018Z,3.03
2022-10-09T22:48:38.829Z,2.97
2022-10-09T22:51:07.240Z,3.33
2022-10-09T22:53:34.458Z,3.03
2022-10-09T22:56:01.621Z,3.00
2022-10-09T22:58:28.144Z,2.88
2022-10-09T23:00:55.506Z,2.90
2022-10-09T23:03:21.960Z,2.72
2022-10-09T23:05:48.411Z,2.90
2022-10-09T23:08:15.079Z,2.47
2022-10-09T23:10:41.585Z,2.72
2022-10-09T23:13:08.050Z,2.50
2022-10-09T23:15:35.967Z,2.80
2022-10-09T23:18:06.285Z,2.22
2022-10-09T23:20:36.309Z,2.80
2022-10-09T23:23:02.851Z,2.60
2022-10-09T23:25:29.318Z,2.47
2022-10-09T23:27:55.779Z,2.45
2022-10-09T23:30:22.230Z,2.67
2022-10-09T23:32:52.021Z,2.80
2022-10-09T23:35:18.593Z,2.60
2022-10-09T23:37:45.046Z,2.60
2022-10-09T23:40:11.493Z,2.53
2022-10-09T23:42:37.959Z,2.70
2022-10-09T23:45:10.443Z,2.53
2022-10-09T23:47:37.100Z,2.50
2022-10-09T23:50:05.114Z,2.50
2022-10-09T23:52:31.604Z,2.58
2022-10-09T23:54:58.038Z,2.40
2022-10-09T23:57:24.529Z,2.17
2022-10-09T23:59:51.047Z,2.78
